createdAt,value
2018-01-24T00:00:18.927Z,101367.07
2018-01-24T00:02:46.758Z,101365.16
2018-01-24T00:05:14.494Z,101360.89
2018-01-24T00:07:42.238Z,101366.22
2018-01-24T00:10:09.904Z,101362.86
2018-01-24T00:12:37.675Z,101357.56
2018-01-24T00:15:05.453Z,101356.20
2018-01-24T00:17:33.232Z,101358.38
2018-01-24T00:20:01.044Z,101361.06
2018-01-24T00:22:28.790Z,101363.47
2018-01-24T00:24:56.539Z,101372.02
2018-01-24T00:27:24.341Z,101364.69
2018-01-24T00:29:52.061Z,101369.72
2018-01-24T00:32:19.812Z,101375.28
2018-01-24T00:34:47.536Z,101379.02
2018-01-24T00:37:15.380Z,101386.86
2018-01-24T00:39:43.093Z,101388.45
2018-01-24T00:42:10.848Z,101382.20
2018-01-24T00:44:38.602Z,101379.55
2018-01-24T00:47:06.388Z,101383.31
2018-01-24T00:49:34.094Z,101383.84
2018-01-24T00:52:02.366Z,101389.47
2018-01-24T00:54:30.040Z,101384.31
2018-01-24T00:56:57.738Z,101381.16
2018-01-24T00:59:25.503Z,101384.42
2018-01-24T01:01:53.343Z,101394.55
2018-01-24T01:04:21.350Z,101386.31
2018-01-24T01:06:49.069Z,101383.33
2018-01-24T01:09:16.761Z,101386.36
2018-01-24T01:11:44.456Z,101384.56
2018-01-24T01:14:12.651Z,101378.05
2018-01-24T01:16:40.334Z,101376.13
2018-01-24T01:19:08.382Z,101374.89
2018-01-24T01:21:36.142Z,101383.41
2018-01-24T01:24:03.809Z,101380.02
2018-01-24T01:26:31.699Z,101383.75
2018-01-24T01:28:59.368Z,101393.09
2018-01-24T01:31:27.122Z,101391.17
2018-01-24T01:33:54.829Z,101395.38
2018-01-24T01:36:22.488Z,101397.30
2018-01-24T01:38:50.203Z,101390.52
2018-01-24T01:41:18.245Z,101406.34
2018-01-24T01:43:45.923Z,101399.94
2018-01-24T01:46:13.609Z,101416.82
2018-01-24T01:48:41.414Z,101410.75
2018-01-24T01:51:09.227Z,101411.28
2018-01-24T01:53:36.965Z,101407.71
2018-01-24T01:56:04.701Z,101407.27
2018-01-24T01:58:32.376Z,101404.62
2018-01-24T02:01:00.109Z,101402.30
2018-01-24T02:03:28.352Z,101406.78
2018-01-24T02:05:56.032Z,101401.25
2018-01-24T02:08:23.732Z,101403.20
2018-01-24T02:10:51.395Z,101405.66
2018-01-24T02:13:19.146Z,101403.44
2018-01-24T02:15:47.068Z,101403.55
2018-01-24T02:18:14.838Z,101404.08
2018-01-24T02:20:42.556Z,101398.46
2018-01-24T02:23:10.409Z,101400.20
2018-01-24T02:25:38.181Z,101390.09
2018-01-24T02:28:05.931Z,101393.16
2018-01-24T02:30:33.676Z,101383.58
2018-01-24T02:33:01.384Z,101382.11
2018-01-24T02:35:29.242Z,101386.59
2018-01-24T02:37:56.993Z,101385.13
2018-01-24T02:40:24.643Z,101381.58
2018-01-24T02:42:52.376Z,101390.29
2018-01-24T02:45:20.107Z,101393.52
2018-01-24T02:47:47.801Z,101386.22
2018-01-24T02:50:15.533Z,101392.20
2018-01-24T02:52:43.261Z,101387.31
2018-01-24T02:55:10.911Z,101385.53
2018-01-24T02:57:38.986Z,101389.87
2018-01-24T03:00:06.810Z,101382.70
2018-01-24T03:02:34.590Z,101388.44
2018-01-24T03:05:02.358Z,101383.42
2018-01-24T03:07:30.053Z,101389.80
2018-01-24T03:09:57.837Z,101395.83
2018-01-24T03:12:25.540Z,101394.77
2018-01-24T03:14:53.259Z,101391.80
2018-01-24T03:17:20.952Z,101391.80
2018-01-24T03:19:48.621Z,101395.34
2018-01-24T03:22:16.768Z,101394.39
2018-01-24T03:24:44.492Z,101403.59
2018-01-24T03:27:12.559Z,101403.44
2018-01-24T03:29:40.634Z,101394.36
2018-01-24T03:32:08.320Z,101392.09
2018-01-24T03:34:36.100Z,101396.42
2018-01-24T03:37:03.835Z,101392.55
2018-01-24T03:39:31.614Z,101387.77
2018-01-24T03:41:59.662Z,101392.66
2018-01-24T03:44:27.432Z,101381.09
2018-01-24T03:46:55.608Z,101386.93
2018-01-24T03:49:23.329Z,101384.75
2018-01-24T03:51:51.303Z,101377.17
2018-01-24T03:54:19.000Z,101381.81
2018-01-24T03:56:46.692Z,101388.36
2018-01-24T03:59:14.430Z,101388.14
2018-01-24T04:01:42.142Z,101385.13
2018-01-24T04:04:09.869Z,101383.13
2018-01-24T04:06:37.916Z,101381.66
2018-01-24T04:09:05.660Z,101387.09
2018-01-24T04:11:34.165Z,101382.91
2018-01-24T04:14:01.853Z,101385.66
2018-01-24T04:16:29.890Z,101378.57
2018-01-24T04:18:57.648Z,101376.42
2018-01-24T04:21:25.341Z,101377.06
2018-01-24T04:23:53.071Z,101368.93
2018-01-24T04:26:21.064Z,101367.69
2018-01-24T04:28:48.783Z,101369.86
2018-01-24T04:31:16.552Z,101368.20
2018-01-24T04:33:44.609Z,101364.09
2018-01-24T04:36:12.282Z,101364.25
2018-01-24T04:38:40.080Z,101359.36
2018-01-24T04:41:08.501Z,101358.03
2018-01-24T04:43:36.190Z,101353.02
2018-01-24T04:46:04.406Z,101363.84
2018-01-24T04:48:32.423Z,101361.39
2018-01-24T04:51:00.150Z,101350.23
2018-01-24T04:53:27.866Z,101351.89
2018-01-24T04:55:55.981Z,101346.23
2018-01-24T04:58:23.746Z,101342.32
2018-01-24T05:00:51.463Z,101340.89
2018-01-24T05:03:19.213Z,101344.85
2018-01-24T05:05:46.978Z,101345.72
2018-01-24T05:08:14.744Z,101343.39
2018-01-24T05:10:42.505Z,101338.11
2018-01-24T05:13:10.272Z,101345.20
2018-01-24T05:15:41.433Z,101340.48
2018-01-24T05:18:09.137Z,101340.67
2018-01-24T05:23:45.916Z,101345.02
2018-01-24T05:26:14.015Z,101336.53
2018-01-24T05:28:42.178Z,101330.84
2018-01-24T05:31:09.915Z,101340.11
2018-01-24T05:33:37.656Z,101338.37
2018-01-24T05:36:05.721Z,101338.76
2018-01-24T05:38:33.467Z,101333.19
2018-01-24T05:41:01.258Z,101334.80
2018-01-24T05:43:29.092Z,101325.12
2018-01-24T05:45:56.858Z,101323.69
2018-01-24T05:48:24.621Z,101323.84
2018-01-24T05:50:52.320Z,101315.17
2018-01-24T05:53:20.119Z,101302.97
2018-01-24T05:55:48.899Z,101302.67
2018-01-24T05:58:16.644Z,101299.80
2018-01-24T06:00:44.388Z,101305.23
2018-01-24T06:03:12.189Z,101306.96
2018-01-24T06:05:40.334Z,101309.18
2018-01-24T06:08:08.083Z,101312.49
2018-01-24T06:10:36.234Z,101318.59
2018-01-24T06:13:04.297Z,101308.42
2018-01-24T06:15:31.973Z,101311.96
2018-01-24T06:17:59.755Z,101304.61
2018-01-24T06:20:27.457Z,101301.14
2018-01-24T06:22:55.250Z,101301.78
2018-01-24T06:25:22.972Z,101299.59
2018-01-24T06:27:50.704Z,101298.75
2018-01-24T06:30:18.422Z,101292.45
2018-01-24T06:32:46.513Z,101294.86
2018-01-24T06:35:14.268Z,101289.02
2018-01-24T06:37:41.991Z,101283.52
2018-01-24T06:40:09.719Z,101281.21
2018-01-24T06:42:38.564Z,101279.52
2018-01-24T06:45:06.241Z,101277.66
2018-01-24T06:47:34.441Z,101269.90
2018-01-24T06:50:02.195Z,101258.10
2018-01-24T06:52:29.996Z,101260.72
2018-01-24T06:54:57.789Z,101257.90
2018-01-24T06:57:25.538Z,101248.20
2018-01-24T06:59:53.284Z,101244.95
2018-01-24T07:02:21.551Z,101243.67
2018-01-24T07:04:49.315Z,101249.34
2018-01-24T07:07:17.265Z,101248.25
2018-01-24T07:09:45.054Z,101251.41
2018-01-24T07:12:24.439Z,101246.69
2018-01-24T07:14:54.408Z,101246.80
2018-01-24T07:17:22.215Z,101252.81
2018-01-24T07:19:50.021Z,101245.62
2018-01-24T07:22:17.765Z,101253.64
2018-01-24T07:24:45.481Z,101251.82
2018-01-24T07:27:13.234Z,101249.90
2018-01-24T07:29:40.998Z,101248.08
2018-01-24T07:32:08.722Z,101249.16
2018-01-24T07:34:36.554Z,101251.05
2018-01-24T07:37:04.298Z,101247.73
2018-01-24T07:39:32.803Z,101244.58
2018-01-24T07:42:00.739Z,101239.38
2018-01-24T07:44:28.443Z,101233.62
2018-01-24T07:46:56.257Z,101226.88
2018-01-24T07:49:23.993Z,101222.98
2018-01-24T07:51:52.187Z,101219.06
2018-01-24T07:54:19.912Z,101213.89
2018-01-24T07:56:48.038Z,101211.66
2018-01-24T07:59:16.009Z,101217.09
2018-01-24T08:01:43.888Z,101217.39
2018-01-24T08:04:11.630Z,101218.50
2018-01-24T08:06:39.400Z,101205.27
2018-01-24T08:09:07.240Z,101206.17
2018-01-24T08:11:35.849Z,101209.87
2018-01-24T08:14:03.552Z,101195.45
2018-01-24T08:16:31.257Z,101196.24
2018-01-24T08:18:59.126Z,101197.55
2018-01-24T08:21:26.877Z,101183.81
2018-01-24T08:23:54.599Z,101186.47
2018-01-24T08:26:22.275Z,101185.01
2018-01-24T08:28:49.992Z,101181.45
2018-01-24T08:31:17.751Z,101183.08
2018-01-24T08:33:45.466Z,101181.02
2018-01-24T08:36:13.205Z,101181.50
2018-01-24T08:38:40.946Z,101166.02
2018-01-24T08:41:08.657Z,101169.53
2018-01-24T08:43:37.094Z,101160.97
2018-01-24T08:46:04.098Z,101161.22
2018-01-24T08:48:31.802Z,101146.91
2018-01-24T08:50:59.617Z,101154.94
2018-01-24T08:53:27.757Z,101150.93
2018-01-24T08:55:55.465Z,101150.33
2018-01-24T08:58:23.268Z,101160.17
2018-01-24T09:00:50.988Z,101156.19
2018-01-24T09:03:18.832Z,101148.55
2018-01-24T09:05:46.575Z,101148.13
2018-01-24T09:08:14.643Z,101135.44
2018-01-24T09:10:42.614Z,101137.40
2018-01-24T09:13:10.324Z,101141.47
2018-01-24T09:15:38.010Z,101131.90
2018-01-24T09:18:06.012Z,101131.33
2018-01-24T09:20:33.745Z,101115.13
2018-01-24T09:23:01.492Z,101108.42
2018-01-24T09:25:29.327Z,101114.39
2018-01-24T09:27:57.029Z,101102.83
2018-01-24T09:30:25.158Z,101103.02
2018-01-24T09:32:53.107Z,101091.16
2018-01-24T09:35:20.803Z,101085.34
2018-01-24T09:37:48.555Z,101097.83
2018-01-24T09:40:16.277Z,101093.75
2018-01-24T09:42:44.098Z,101094.64
2018-01-24T09:45:12.734Z,101100.23
2018-01-24T09:47:40.472Z,101096.16
2018-01-24T09:50:08.243Z,101087.84
2018-01-24T09:52:35.971Z,101097.55
2018-01-24T09:55:03.707Z,101097.86
2018-01-24T09:57:31.456Z,101088.91
2018-01-24T09:59:59.140Z,101102.66
2018-01-24T10:02:26.827Z,101100.92
2018-01-24T10:04:54.552Z,101094.19
2018-01-24T10:07:22.301Z,101096.62
2018-01-24T10:09:50.076Z,101088.82
2018-01-24T10:12:18.290Z,101088.84
2018-01-24T10:14:46.110Z,101074.39
2018-01-24T10:17:13.837Z,101081.59
2018-01-24T10:19:41.528Z,101077.36
2018-01-24T10:22:09.253Z,101069.84
2018-01-24T10:24:37.052Z,101062.16
2018-01-24T10:27:04.802Z,101051.19
2018-01-24T10:29:32.500Z,101054.70
2018-01-24T10:32:00.585Z,101057.28
2018-01-24T10:34:28.343Z,101054.79
2018-01-24T10:36:56.342Z,101067.28
2018-01-24T10:39:24.067Z,101052.09
2018-01-24T10:41:51.911Z,101049.06
2018-01-24T10:44:20.033Z,101040.36
2018-01-24T10:46:47.761Z,101043.30
2018-01-24T10:49:15.518Z,101038.02
2018-01-24T10:51:43.299Z,101029.09
2018-01-24T10:54:11.031Z,101021.56
2018-01-24T10:56:38.808Z,101034.14
2018-01-24T10:59:06.572Z,101012.00
2018-01-24T11:01:34.816Z,101023.95
2018-01-24T11:04:02.598Z,101014.15
2018-01-24T11:06:30.329Z,101004.59
2018-01-24T11:08:58.176Z,101001.08
2018-01-24T11:11:26.007Z,100999.65
2018-01-24T11:13:54.132Z,100987.80
2018-01-24T11:16:21.870Z,100980.30
2018-01-24T11:18:49.629Z,100966.63
2018-01-24T11:21:17.638Z,100958.51
2018-01-24T11:23:45.462Z,100939.64
2018-01-24T11:26:13.199Z,100948.86
2018-01-24T11:28:40.924Z,100942.84
2018-01-24T11:31:09.109Z,100940.55
2018-01-24T11:33:36.843Z,100927.41
2018-01-24T11:36:04.567Z,100926.76
2018-01-24T11:38:33.121Z,100922.44
2018-01-24T11:41:00.879Z,100923.72
2018-01-24T11:43:28.616Z,100926.94
2018-01-24T11:45:56.831Z,100914.78
2018-01-24T11:48:24.923Z,100907.56
2018-01-24T11:50:52.649Z,100914.20
2018-01-24T11:53:20.614Z,100916.61
2018-01-24T11:55:49.018Z,100905.02
2018-01-24T11:58:16.807Z,100906.22
2018-01-24T12:00:45.051Z,100911.80
2018-01-24T12:03:12.831Z,100903.09
2018-01-24T12:05:40.985Z,100897.73
2018-01-24T12:08:08.955Z,100890.11
2018-01-24T12:10:36.640Z,100886.20
2018-01-24T12:13:04.423Z,100871.30
2018-01-24T12:15:32.211Z,100883.44
2018-01-24T12:18:00.053Z,100869.75
2018-01-24T12:20:27.785Z,100857.98
2018-01-24T12:22:55.507Z,100864.17
2018-01-24T12:25:31.754Z,100847.27
2018-01-24T12:27:59.889Z,100830.14
2018-01-24T12:30:27.624Z,100826.69
2018-01-24T12:32:55.502Z,100836.53
2018-01-24T12:35:23.274Z,100830.06
2018-01-24T12:37:51.235Z,100821.23
2018-01-24T12:40:19.091Z,100814.76
2018-01-24T12:42:46.865Z,100797.52
2018-01-24T12:45:14.577Z,100798.95
2018-01-24T12:47:42.504Z,100792.94
2018-01-24T12:50:10.272Z,100774.03
2018-01-24T12:52:37.999Z,100779.81
2018-01-24T12:55:06.008Z,100765.53
2018-01-24T12:57:33.833Z,100763.80
2018-01-24T13:00:01.680Z,100763.30
2018-01-24T13:02:29.481Z,100774.56
2018-01-24T13:04:57.244Z,100770.11
2018-01-24T13:07:25.068Z,100762.56
2018-01-24T13:09:52.774Z,100766.35
2018-01-24T13:12:20.555Z,100765.63
2018-01-24T13:14:48.731Z,100767.41
2018-01-24T13:17:16.419Z,100768.67
2018-01-24T13:19:44.280Z,100771.98
2018-01-24T13:22:12.031Z,100758.36
2018-01-24T13:24:39.782Z,100768.59
2018-01-24T13:27:07.628Z,100766.03
2018-01-24T13:29:35.360Z,100756.75
2018-01-24T13:32:03.068Z,100746.64
2018-01-24T13:34:31.016Z,100741.68
2018-01-24T13:36:58.757Z,100701.26
2018-01-24T13:39:27.259Z,100701.36
2018-01-24T13:41:54.971Z,100695.97
2018-01-24T13:44:23.035Z,100685.31
2018-01-24T13:46:51.104Z,100688.66
2018-01-24T13:49:18.814Z,100684.23
2018-01-24T13:51:46.481Z,100670.69
2018-01-24T13:54:14.253Z,100666.91
2018-01-24T13:56:42.376Z,100667.51
2018-01-24T13:59:10.142Z,100675.37
2018-01-24T14:01:37.877Z,100684.77
2018-01-24T14:04:05.606Z,100669.45
2018-01-24T14:06:33.605Z,100667.25
2018-01-24T14:09:01.280Z,100663.64
2018-01-24T14:11:29.010Z,100661.08
2018-01-24T14:13:56.737Z,100660.16
2018-01-24T14:16:24.484Z,100667.73
2018-01-24T14:18:52.219Z,100663.06
2018-01-24T14:21:19.927Z,100641.27
2018-01-24T14:23:47.634Z,100649.92
2018-01-24T14:26:15.386Z,100655.34
2018-01-24T14:28:43.131Z,100650.37
2018-01-24T14:31:11.175Z,100648.22
2018-01-24T14:33:39.974Z,100650.70
2018-01-24T14:36:07.746Z,100652.68
2018-01-24T14:38:35.690Z,100659.22
2018-01-24T14:41:03.446Z,100642.22
2018-01-24T14:43:31.165Z,100652.06
2018-01-24T14:45:58.816Z,100648.55
2018-01-24T14:48:26.529Z,100634.28
2018-01-24T14:50:54.213Z,100639.90
2018-01-24T14:53:22.288Z,100617.00
2018-01-24T14:55:50.150Z,100638.02
2018-01-24T14:58:17.900Z,100633.77
2018-01-24T15:00:45.615Z,100628.24
2018-01-24T15:03:13.293Z,100613.94
2018-01-24T15:05:40.979Z,100616.01
2018-01-24T15:08:08.667Z,100615.77
2018-01-24T15:10:36.636Z,100622.51
2018-01-24T15:13:04.820Z,100612.59
2018-01-24T15:15:32.538Z,100621.55
2018-01-24T15:18:00.166Z,100614.60
2018-01-24T15:20:27.903Z,100608.94
2018-01-24T15:22:55.548Z,100609.47
2018-01-24T15:25:23.258Z,100599.94
2018-01-24T15:27:51.009Z,100603.81
2018-01-24T15:30:18.705Z,100610.45
2018-01-24T15:32:46.358Z,100598.12
2018-01-24T15:35:14.053Z,100604.55
2018-01-24T15:37:41.734Z,100593.00
2018-01-24T15:40:09.466Z,100593.78
2018-01-24T15:42:37.148Z,100580.77
2018-01-24T15:45:04.830Z,100592.78
2018-01-24T15:47:32.561Z,100593.14
2018-01-24T15:50:00.328Z,100589.00
2018-01-24T15:52:27.981Z,100590.01
2018-01-24T15:54:55.614Z,100598.94
2018-01-24T15:57:23.301Z,100592.50
2018-01-24T15:59:50.998Z,100612.83
2018-01-24T16:02:18.980Z,100594.55
2018-01-24T16:04:47.707Z,100595.57
2018-01-24T16:07:15.404Z,100584.20
2018-01-24T16:09:43.109Z,100572.29
2018-01-24T16:12:10.753Z,100598.16
2018-01-24T16:14:38.424Z,100589.46
2018-01-24T16:17:06.043Z,100588.45
2018-01-24T16:19:33.698Z,100598.38
2018-01-24T16:22:01.349Z,100568.14
2018-01-24T16:24:32.696Z,100587.83
2018-01-24T16:27:00.611Z,100583.96
2018-01-24T16:29:28.373Z,100580.21
2018-01-24T16:31:56.078Z,100580.95
2018-01-24T16:34:23.933Z,100580.95
2018-01-24T16:36:51.578Z,100586.31
2018-01-24T16:39:19.280Z,100578.00
2018-01-24T16:41:47.432Z,100581.75
2018-01-24T16:44:15.140Z,100581.70
2018-01-24T16:46:42.794Z,100577.30
2018-01-24T16:49:10.914Z,100578.50
2018-01-24T16:51:38.589Z,100575.63
2018-01-24T16:54:06.307Z,100585.23
2018-01-24T16:56:34.294Z,100586.92
2018-01-24T16:59:01.972Z,100583.23
2018-01-24T17:01:30.049Z,100571.52
2018-01-24T17:03:58.141Z,100574.40
2018-01-24T17:06:25.931Z,100584.02
2018-01-24T17:08:53.628Z,100577.33
2018-01-24T17:11:22.018Z,100583.91
2018-01-24T17:13:49.722Z,100580.06
2018-01-24T17:16:17.458Z,100581.30
2018-01-24T17:18:45.162Z,100587.40
2018-01-24T17:21:12.888Z,100578.53
2018-01-24T17:23:40.604Z,100557.17
2018-01-24T17:26:15.996Z,100575.80
2018-01-24T17:28:43.893Z,100576.55
2018-01-24T17:31:13.028Z,100573.55
2018-01-24T17:33:40.770Z,100564.12
2018-01-24T17:36:08.417Z,100571.16
2018-01-24T17:38:36.154Z,100550.38
2018-01-24T17:41:03.977Z,100551.23
2018-01-24T17:43:31.692Z,100544.44
2018-01-24T17:46:00.009Z,100548.59
2018-01-24T17:48:27.814Z,100549.88
2018-01-24T17:50:55.451Z,100545.50
2018-01-24T17:53:23.131Z,100548.06
2018-01-24T17:55:51.224Z,100543.41
2018-01-24T17:58:18.964Z,100543.24
2018-01-24T18:00:47.065Z,100544.14
2018-01-24T18:03:15.215Z,100537.71
2018-01-24T18:05:44.999Z,100531.09
2018-01-24T18:08:13.934Z,100543.74
2018-01-24T18:10:41.726Z,100538.28
2018-01-24T18:13:09.491Z,100539.72
2018-01-24T18:15:37.133Z,100533.25
2018-01-24T18:18:04.869Z,100546.63
2018-01-24T18:20:32.510Z,100532.06
2018-01-24T18:23:00.292Z,100527.89
2018-01-24T18:25:28.070Z,100528.93
2018-01-24T18:27:55.773Z,100528.31
2018-01-24T18:30:24.885Z,100527.33
2018-01-24T18:32:52.592Z,100521.68
2018-01-24T18:35:20.237Z,100521.27
2018-01-24T18:40:31.231Z,100516.66
2018-01-24T18:42:58.938Z,100528.73
2018-01-24T18:45:26.646Z,100514.97
2018-01-24T18:47:54.298Z,100513.78
2018-01-24T18:50:22.039Z,100515.59
2018-01-24T18:52:49.710Z,100510.80
2018-01-24T18:55:17.416Z,100511.84
2018-01-24T18:57:45.518Z,100508.27
2018-01-24T19:00:13.303Z,100505.37
2018-01-24T19:02:40.949Z,100505.13
2018-01-24T19:05:08.679Z,100503.20
2018-01-24T19:07:36.540Z,100507.77
2018-01-24T19:10:04.519Z,100493.22
2018-01-24T19:12:32.511Z,100493.39
2018-01-24T19:15:00.207Z,100498.41
2018-01-24T19:17:27.929Z,100497.55
2018-01-24T19:19:55.608Z,100501.21
2018-01-24T19:22:23.239Z,100491.37
2018-01-24T19:24:51.335Z,100503.77
2018-01-24T19:27:19.392Z,100498.91
2018-01-24T19:29:47.050Z,100498.91
2018-01-24T19:32:14.722Z,100499.08
2018-01-24T19:34:42.382Z,100510.66
2018-01-24T19:37:10.419Z,100505.80
2018-01-24T19:39:38.075Z,100512.51
2018-01-24T19:42:05.674Z,100510.74
2018-01-24T19:44:33.445Z,100510.66
2018-01-24T19:47:01.140Z,100505.08
2018-01-24T19:49:29.302Z,100501.42
2018-01-24T19:51:57.068Z,100518.70
2018-01-24T19:54:24.716Z,100512.28
2018-01-24T19:56:52.348Z,100508.13
2018-01-24T19:59:20.061Z,100499.98
2018-01-24T20:01:47.722Z,100499.84
2018-01-24T20:04:15.357Z,100515.34
2018-01-24T20:06:43.211Z,100507.34
2018-01-24T20:09:10.916Z,100494.78
2018-01-24T20:11:39.495Z,100508.53
2018-01-24T20:14:07.200Z,100503.76
2018-01-24T20:16:34.929Z,100502.16
2018-01-24T20:19:02.959Z,100509.78
2018-01-24T20:21:30.716Z,100506.23
2018-01-24T20:23:58.451Z,100510.48
2018-01-24T20:26:26.082Z,100503.06
2018-01-24T20:28:53.797Z,100505.05
2018-01-24T20:31:21.524Z,100506.32
2018-01-24T20:33:49.173Z,100501.95
2018-01-24T20:36:16.891Z,100515.47
2018-01-24T20:38:44.524Z,100512.91
2018-01-24T20:41:12.175Z,100520.16
2018-01-24T20:43:40.222Z,100547.42
2018-01-24T20:46:07.871Z,100577.72
2018-01-24T20:48:35.768Z,100596.59
2018-01-24T20:51:03.483Z,100595.58
2018-01-24T20:53:31.159Z,100626.91
2018-01-24T20:55:58.878Z,100619.75
2018-01-24T20:58:26.879Z,100635.10
2018-01-24T21:00:54.927Z,100624.27
2018-01-24T21:03:22.600Z,100629.91
2018-01-24T21:05:50.408Z,100642.84
2018-01-24T21:08:18.516Z,100633.64
2018-01-24T21:10:46.270Z,100644.61
2018-01-24T21:13:14.008Z,100654.66
2018-01-24T21:15:41.658Z,100651.53
2018-01-24T21:18:10.507Z,100664.55
2018-01-24T21:20:38.247Z,100661.92
2018-01-24T21:23:08.975Z,100662.00
2018-01-24T21:25:36.643Z,100656.95
2018-01-24T21:28:04.309Z,100659.12
2018-01-24T21:30:43.917Z,100663.81
2018-01-24T21:36:29.574Z,100671.23
2018-01-24T21:38:57.213Z,100668.68
2018-01-24T21:41:25.366Z,100679.91
2018-01-24T21:43:53.108Z,100667.94
2018-01-24T21:46:20.863Z,100675.02
2018-01-24T21:48:48.616Z,100663.73
2018-01-24T21:51:16.380Z,100667.14
2018-01-24T21:53:44.597Z,100677.81
2018-01-24T21:56:12.439Z,100684.16
2018-01-24T21:58:40.199Z,100683.27
2018-01-24T22:01:07.926Z,100680.86
2018-01-24T22:03:35.614Z,100679.17
2018-01-24T22:06:03.330Z,100669.50
2018-01-24T22:08:31.373Z,100672.55
2018-01-24T22:10:59.141Z,100682.59
2018-01-24T22:13:26.839Z,100672.95
2018-01-24T22:15:54.610Z,100680.44
2018-01-24T22:18:22.339Z,100687.41
2018-01-24T22:20:50.083Z,100680.59
2018-01-24T22:23:17.762Z,100689.26
2018-01-24T22:25:45.466Z,100693.84
2018-01-24T22:28:13.164Z,100698.39
2018-01-24T22:30:40.898Z,100705.04
2018-01-24T22:33:08.768Z,100702.69
2018-01-24T22:35:36.486Z,100693.83
2018-01-24T22:38:04.243Z,100687.82
2018-01-24T22:40:31.956Z,100688.03
2018-01-24T22:42:59.714Z,100687.25
2018-01-24T22:45:28.920Z,100686.24
2018-01-24T22:47:58.516Z,100681.37
2018-01-24T22:50:26.212Z,100681.59
2018-01-24T22:52:53.968Z,100681.99
2018-01-24T22:55:22.604Z,100671.34
2018-01-24T22:57:50.377Z,100668.97
2018-01-24T23:00:20.582Z,100678.32
2018-01-24T23:02:48.302Z,100691.45
2018-01-24T23:05:16.049Z,100687.23
2018-01-24T23:07:43.803Z,100685.73
2018-01-24T23:10:11.543Z,100691.08
2018-01-24T23:12:39.268Z,100687.67
2018-01-24T23:15:07.393Z,100682.34
2018-01-24T23:17:35.130Z,100700.80
2018-01-24T23:20:02.920Z,100698.98
2018-01-24T23:22:30.675Z,100700.17
2018-01-24T23:24:58.399Z,100704.05
2018-01-24T23:27:26.089Z,100722.63
2018-01-24T23:29:53.780Z,100721.47
2018-01-24T23:32:21.526Z,100719.97
2018-01-24T23:34:49.224Z,100723.80
2018-01-24T23:37:17.274Z,100735.73
2018-01-24T23:39:45.431Z,100736.67
2018-01-24T23:42:13.191Z,100747.17
2018-01-24T23:44:40.956Z,100741.55
2018-01-24T23:47:08.915Z,100742.41
2018-01-24T23:49:36.669Z,100759.06
2018-01-24T23:52:04.971Z,100762.22
2018-01-24T23:54:32.804Z,100763.53
2018-01-24T23:57:00.538Z,100746.53
2018-01-24T23:59:28.234Z,100764.54
